sensor_id;sensor_type;location;lat;lon;timestamp;temperature;humidity
4207;DHT22;2117;47.972;7.830;2023-12-20T00:02:17;7.40;99.90
4207;DHT22;2117;47.972;7.830;2023-12-20T00:04:42;7.40;99.90
4207;DHT22;2117;47.972;7.830;2023-12-20T00:07:08;7.40;99.90
4207;DHT22;2117;47.972;7.830;2023-12-20T00:09:33;7.40;99.90
4207;DHT22;2117;47.972;7.830;2023-12-20T00:11:59;7.40;99.90
4207;DHT22;2117;47.972;7.830;2023-12-20T00:14:25;7.40;99.90
4207;DHT22;2117;47.972;7.830;2023-12-20T00:16:50;7.40;99.90
4207;DHT22;2117;47.972;7.830;2023-12-20T00:19:16;7.40;99.90
4207;DHT22;2117;47.972;7.830;2023-12-20T00:21:41;7.40;99.90
4207;DHT22;2117;47.972;7.830;2023-12-20T00:24:07;7.40;99.90
4207;DHT22;2117;47.972;7.830;2023-12-20T00:26:33;7.40;99.90
4207;DHT22;2117;47.972;7.830;2023-12-20T00:28:59;7.40;99.90
4207;DHT22;2117;47.972;7.830;2023-12-20T00:31:25;7.40;99.90
4207;DHT22;2117;47.972;7.830;2023-12-20T00:33:50;7.40;99.90
4207;DHT22;2117;47.972;7.830;2023-12-20T00:36:16;7.40;99.90
4207;DHT22;2117;47.972;7.830;2023-12-20T00:38:41;7.40;99.90
4207;DHT22;2117;47.972;7.830;2023-12-20T00:41:07;7.40;99.90
4207;DHT22;2117;47.972;7.830;2023-12-20T00:43:33;7.40;99.90
4207;DHT22;2117;47.972;7.830;2023-12-20T00:45:58;7.40;99.90
4207;DHT22;2117;47.972;7.830;2023-12-20T00:48:25;7.40;99.90
4207;DHT22;2117;47.972;7.830;2023-12-20T00:50:52;7.30;99.90
4207;DHT22;2117;47.972;7.830;2023-12-20T00:53:18;7.20;99.90
4207;DHT22;2117;47.972;7.830;2023-12-20T00:55:44;7.10;99.90
4207;DHT22;2117;47.972;7.830;2023-12-20T00:58:10;7.00;99.90
4207;DHT22;2117;47.972;7.830;2023-12-20T01:00:35;7.00;99.90
4207;DHT22;2117;47.972;7.830;2023-12-20T01:03:01;6.90;99.90
4207;DHT22;2117;47.972;7.830;2023-12-20T01:05:27;6.80;99.90
4207;DHT22;2117;47.972;7.830;2023-12-20T01:07:52;6.80;99.90
4207;DHT22;2117;47.972;7.830;2023-12-20T01:10:18;6.70;99.90
4207;DHT22;2117;47.972;7.830;2023-12-20T01:12:44;6.70;99.90
4207;DHT22;2117;47.972;7.830;2023-12-20T01:15:10;6.60;99.90
4207;DHT22;2117;47.972;7.830;2023-12-20T01:17:35;6.60;99.90
4207;DHT22;2117;47.972;7.830;2023-12-20T01:20:01;6.60;99.90
4207;DHT22;2117;47.972;7.830;2023-12-20T01:22:27;6.60;99.90
4207;DHT22;2117;47.972;7.830;2023-12-20T01:24:52;6.50;99.90
4207;DHT22;2117;47.972;7.830;2023-12-20T01:27:18;6.50;99.90
4207;DHT22;2117;47.972;7.830;2023-12-20T01:29:44;6.50;99.90
4207;DHT22;2117;47.972;7.830;2023-12-20T01:32:09;6.50;99.90
4207;DHT22;2117;47.972;7.830;2023-12-20T01:34:35;6.50;99.90
4207;DHT22;2117;47.972;7.830;2023-12-20T01:37:01;6.40;99.90
4207;DHT22;2117;47.972;7.830;2023-12-20T01:39:28;6.40;99.90
4207;DHT22;2117;47.972;7.830;2023-12-20T01:41:53;6.40;99.90
4207;DHT22;2117;47.972;7.830;2023-12-20T01:44:19;6.40;99.90
4207;DHT22;2117;47.972;7.830;2023-12-20T01:46:45;6.40;99.90
4207;DHT22;2117;47.972;7.830;2023-12-20T01:49:11;6.40;99.90
4207;DHT22;2117;47.972;7.830;2023-12-20T01:51:37;6.40;99.90
4207;DHT22;2117;47.972;7.830;2023-12-20T01:54:03;6.40;99.90
4207;DHT22;2117;47.972;7.830;2023-12-20T01:56:31;6.40;99.90
4207;DHT22;2117;47.972;7.830;2023-12-20T01:58:57;6.40;99.90
4207;DHT22;2117;47.972;7.830;2023-12-20T02:01:23;6.40;99.90
4207;DHT22;2117;47.972;7.830;2023-12-20T02:03:50;6.30;99.90
4207;DHT22;2117;47.972;7.830;2023-12-20T02:06:16;6.30;99.90
4207;DHT22;2117;47.972;7.830;2023-12-20T02:08:42;6.30;99.90
4207;DHT22;2117;47.972;7.830;2023-12-20T02:11:08;6.30;99.90
4207;DHT22;2117;47.972;7.830;2023-12-20T02:13:34;6.30;99.90
4207;DHT22;2117;47.972;7.830;2023-12-20T02:16:00;6.30;99.90
4207;DHT22;2117;47.972;7.830;2023-12-20T02:18:26;6.30;99.90
4207;DHT22;2117;47.972;7.830;2023-12-20T02:20:51;6.30;99.90
4207;DHT22;2117;47.972;7.830;2023-12-20T02:23:17;6.30;99.90
4207;DHT22;2117;47.972;7.830;2023-12-20T02:25:42;6.30;99.90
4207;DHT22;2117;47.972;7.830;2023-12-20T02:28:08;6.30;99.90
4207;DHT22;2117;47.972;7.830;2023-12-20T02:30:34;6.30;99.90
4207;DHT22;2117;47.972;7.830;2023-12-20T02:33:01;6.20;99.90
4207;DHT22;2117;47.972;7.830;2023-12-20T02:35:27;6.20;99.90
4207;DHT22;2117;47.972;7.830;2023-12-20T02:37:52;6.20;99.90
4207;DHT22;2117;47.972;7.830;2023-12-20T02:40:18;6.30;99.90
4207;DHT22;2117;47.972;7.830;2023-12-20T02:42:43;6.20;99.90
4207;DHT22;2117;47.972;7.830;2023-12-20T02:45:09;6.20;99.90
4207;DHT22;2117;47.972;7.830;2023-12-20T02:47:35;6.20;99.90
4207;DHT22;2117;47.972;7.830;2023-12-20T02:50:00;6.20;99.90
4207;DHT22;2117;47.972;7.830;2023-12-20T02:52:27;6.20;99.90
4207;DHT22;2117;47.972;7.830;2023-12-20T02:54:52;6.20;99.90
4207;DHT22;2117;47.972;7.830;2023-12-20T02:57:18;6.20;99.90
4207;DHT22;2117;47.972;7.830;2023-12-20T02:59:44;6.20;99.90
4207;DHT22;2117;47.972;7.830;2023-12-20T03:02:09;6.20;99.90
4207;DHT22;2117;47.972;7.830;2023-12-20T03:04:35;6.20;99.90
4207;DHT22;2117;47.972;7.830;2023-12-20T03:07:00;6.20;99.90
4207;DHT22;2117;47.972;7.830;2023-12-20T03:09:26;6.20;99.90
4207;DHT22;2117;47.972;7.830;2023-12-20T03:11:51;6.20;99.90
4207;DHT22;2117;47.972;7.830;2023-12-20T03:14:17;6.20;99.90
4207;DHT22;2117;47.972;7.830;2023-12-20T03:16:47;6.10;99.90
4207;DHT22;2117;47.972;7.830;2023-12-20T03:19:15;6.10;99.90
4207;DHT22;2117;47.972;7.830;2023-12-20T03:21:41;6.10;99.90
4207;DHT22;2117;47.972;7.830;2023-12-20T03:24:07;6.10;99.90
4207;DHT22;2117;47.972;7.830;2023-12-20T03:26:32;6.10;99.90
4207;DHT22;2117;47.972;7.830;2023-12-20T03:28:58;6.20;99.90
4207;DHT22;2117;47.972;7.830;2023-12-20T03:31:23;6.20;99.90
4207;DHT22;2117;47.972;7.830;2023-12-20T03:33:49;6.10;99.90
4207;DHT22;2117;47.972;7.830;2023-12-20T03:36:16;6.10;99.90
4207;DHT22;2117;47.972;7.830;2023-12-20T03:38:42;6.10;99.90
4207;DHT22;2117;47.972;7.830;2023-12-20T03:41:07;6.10;99.90
4207;DHT22;2117;47.972;7.830;2023-12-20T03:43:33;6.10;99.90
4207;DHT22;2117;47.972;7.830;2023-12-20T03:45:58;6.10;99.90
4207;DHT22;2117;47.972;7.830;2023-12-20T03:48:25;6.10;99.90
4207;DHT22;2117;47.972;7.830;2023-12-20T03:50:50;6.10;99.90
4207;DHT22;2117;47.972;7.830;2023-12-20T03:53:16;6.10;99.90
4207;DHT22;2117;47.972;7.830;2023-12-20T03:55:41;6.10;99.90
4207;DHT22;2117;47.972;7.830;2023-12-20T03:58:07;6.10;99.90
4207;DHT22;2117;47.972;7.830;2023-12-20T04:00:32;6.10;99.90
4207;DHT22;2117;47.972;7.830;2023-12-20T04:02:58;6.10;99.90
4207;DHT22;2117;47.972;7.830;2023-12-20T04:05:23;6.10;99.90
4207;DHT22;2117;47.972;7.830;2023-12-20T04:07:49;6.10;99.90
4207;DHT22;2117;47.972;7.830;2023-12-20T04:10:15;6.10;99.90
4207;DHT22;2117;47.972;7.830;2023-12-20T04:12:41;6.10;99.90
4207;DHT22;2117;47.972;7.830;2023-12-20T04:15:07;6.10;99.90
4207;DHT22;2117;47.972;7.830;2023-12-20T04:17:35;6.10;99.90
4207;DHT22;2117;47.972;7.830;2023-12-20T04:20:01;6.10;99.90
4207;DHT22;2117;47.972;7.830;2023-12-20T04:22:26;6.10;99.90
4207;DHT22;2117;47.972;7.830;2023-12-20T04:24:52;6.10;99.90
4207;DHT22;2117;47.972;7.830;2023-12-20T04:27:17;6.10;99.90
4207;DHT22;2117;47.972;7.830;2023-12-20T04:29:43;6.10;99.90
4207;DHT22;2117;47.972;7.830;2023-12-20T04:32:08;6.10;99.90
4207;DHT22;2117;47.972;7.830;2023-12-20T04:34:34;6.10;99.90
4207;DHT22;2117;47.972;7.830;2023-12-20T04:37:00;6.10;99.90
4207;DHT22;2117;47.972;7.830;2023-12-20T04:39:27;6.10;99.90
4207;DHT22;2117;47.972;7.830;2023-12-20T04:41:52;6.10;99.90
4207;DHT22;2117;47.972;7.830;2023-12-20T04:44:18;6.10;99.90
4207;DHT22;2117;47.972;7.830;2023-12-20T04:46:44;6.10;99.90
4207;DHT22;2117;47.972;7.830;2023-12-20T04:49:09;6.20;99.90
4207;DHT22;2117;47.972;7.830;2023-12-20T04:51:35;6.20;99.90
4207;DHT22;2117;47.972;7.830;2023-12-20T04:54:01;6.20;99.90
4207;DHT22;2117;47.972;7.830;2023-12-20T04:56:27;6.20;99.90
4207;DHT22;2117;47.972;7.830;2023-12-20T04:58:52;6.20;99.90
4207;DHT22;2117;47.972;7.830;2023-12-20T05:01:18;6.20;99.90
4207;DHT22;2117;47.972;7.830;2023-12-20T05:03:44;6.20;99.90
4207;DHT22;2117;47.972;7.830;2023-12-20T05:06:10;6.20;99.90
4207;DHT22;2117;47.972;7.830;2023-12-20T05:08:39;6.10;99.90
4207;DHT22;2117;47.972;7.830;2023-12-20T05:11:04;6.20;99.90
4207;DHT22;2117;47.972;7.830;2023-12-20T05:13:30;6.20;99.90
4207;DHT22;2117;47.972;7.830;2023-12-20T05:15:55;6.20;99.90
4207;DHT22;2117;47.972;7.830;2023-12-20T05:18:21;6.20;99.90
4207;DHT22;2117;47.972;7.830;2023-12-20T05:20:48;6.20;99.90
4207;DHT22;2117;47.972;7.830;2023-12-20T05:23:14;6.20;99.90
4207;DHT22;2117;47.972;7.830;2023-12-20T05:25:40;6.20;99.90
4207;DHT22;2117;47.972;7.830;2023-12-20T05:28:05;6.30;99.90
4207;DHT22;2117;47.972;7.830;2023-12-20T05:30:31;6.20;99.90
4207;DHT22;2117;47.972;7.830;2023-12-20T05:32:57;6.20;99.90
4207;DHT22;2117;47.972;7.830;2023-12-20T05:35:22;6.30;99.90
4207;DHT22;2117;47.972;7.830;2023-12-20T05:37:49;6.30;99.90
4207;DHT22;2117;47.972;7.830;2023-12-20T05:40:14;6.30;99.90
4207;DHT22;2117;47.972;7.830;2023-12-20T05:42:40;6.30;99.90
4207;DHT22;2117;47.972;7.830;2023-12-20T05:45:06;6.30;99.90
4207;DHT22;2117;47.972;7.830;2023-12-20T05:47:31;6.30;99.90
4207;DHT22;2117;47.972;7.830;2023-12-20T05:49:57;6.30;99.90
4207;DHT22;2117;47.972;7.830;2023-12-20T05:52:22;6.30;99.90
4207;DHT22;2117;47.972;7.830;2023-12-20T05:54:48;6.30;99.90
4207;DHT22;2117;47.972;7.830;2023-12-20T05:57:13;6.30;99.90
4207;DHT22;2117;47.972;7.830;2023-12-20T05:59:39;6.30;99.90
4207;DHT22;2117;47.972;7.830;2023-12-20T06:02:05;6.30;99.90
4207;DHT22;2117;47.972;7.830;2023-12-20T06:04:30;6.30;99.90
4207;DHT22;2117;47.972;7.830;2023-12-20T06:06:56;6.30;99.90
4207;DHT22;2117;47.972;7.830;2023-12-20T06:09:22;6.40;99.90
4207;DHT22;2117;47.972;7.830;2023-12-20T06:11:47;6.40;99.90
4207;DHT22;2117;47.972;7.830;2023-12-20T06:14:13;6.40;99.90
4207;DHT22;2117;47.972;7.830;2023-12-20T06:16:38;6.40;99.90
4207;DHT22;2117;47.972;7.830;2023-12-20T06:19:04;6.40;99.90
4207;DHT22;2117;47.972;7.830;2023-12-20T06:21:29;6.40;99.90
4207;DHT22;2117;47.972;7.830;2023-12-20T06:23:55;6.40;99.90
4207;DHT22;2117;47.972;7.830;2023-12-20T06:26:20;6.40;99.90
4207;DHT22;2117;47.972;7.830;2023-12-20T06:28:46;6.40;99.90
4207;DHT22;2117;47.972;7.830;2023-12-20T06:31:11;6.40;99.90
4207;DHT22;2117;47.972;7.830;2023-12-20T06:33:38;6.40;99.90
4207;DHT22;2117;47.972;7.830;2023-12-20T06:36:06;6.50;99.90
4207;DHT22;2117;47.972;7.830;2023-12-20T06:38:31;6.50;99.90
4207;DHT22;2117;47.972;7.830;2023-12-20T06:40:57;6.50;99.90
4207;DHT22;2117;47.972;7.830;2023-12-20T06:43:24;6.50;99.90
4207;DHT22;2117;47.972;7.830;2023-12-20T06:45:49;6.50;99.90
4207;DHT22;2117;47.972;7.830;2023-12-20T06:48:16;6.60;99.90
4207;DHT22;2117;47.972;7.830;2023-12-20T06:50:41;6.50;99.90
4207;DHT22;2117;47.972;7.830;2023-12-20T06:53:07;6.50;99.90
4207;DHT22;2117;47.972;7.830;2023-12-20T06:55:35;6.60;99.90
4207;DHT22;2117;47.972;7.830;2023-12-20T06:58:01;6.60;99.90
4207;DHT22;2117;47.972;7.830;2023-12-20T07:00:27;6.60;99.90
4207;DHT22;2117;47.972;7.830;2023-12-20T07:02:52;6.60;99.90
4207;DHT22;2117;47.972;7.830;2023-12-20T07:05:18;6.50;99.90
4207;DHT22;2117;47.972;7.830;2023-12-20T07:07:45;6.50;99.90
4207;DHT22;2117;47.972;7.830;2023-12-20T07:10:12;6.50;99.90
4207;DHT22;2117;47.972;7.830;2023-12-20T07:12:37;6.50;99.90
4207;DHT22;2117;47.972;7.830;2023-12-20T07:15:03;6.50;99.90
4207;DHT22;2117;47.972;7.830;2023-12-20T07:17:29;6.50;99.90
4207;DHT22;2117;47.972;7.830;2023-12-20T07:19:54;6.50;99.90
4207;DHT22;2117;47.972;7.830;2023-12-20T07:22:20;6.50;99.90
4207;DHT22;2117;47.972;7.830;2023-12-20T07:24:46;6.60;99.90
4207;DHT22;2117;47.972;7.830;2023-12-20T07:27:11;6.60;99.90
4207;DHT22;2117;47.972;7.830;2023-12-20T07:29:37;6.60;99.90
4207;DHT22;2117;47.972;7.830;2023-12-20T07:32:03;6.60;99.90
4207;DHT22;2117;47.972;7.830;2023-12-20T07:34:28;6.60;99.90
4207;DHT22;2117;47.972;7.830;2023-12-20T07:36:54;6.60;99.90
4207;DHT22;2117;47.972;7.830;2023-12-20T07:39:19;6.60;99.90
4207;DHT22;2117;47.972;7.830;2023-12-20T07:41:45;6.50;99.90
4207;DHT22;2117;47.972;7.830;2023-12-20T07:44:10;6.60;99.90
4207;DHT22;2117;47.972;7.830;2023-12-20T07:46:36;6.60;99.90
4207;DHT22;2117;47.972;7.830;2023-12-20T07:49:02;6.50;99.90
4207;DHT22;2117;47.972;7.830;2023-12-20T07:51:27;6.50;99.90
4207;DHT22;2117;47.972;7.830;2023-12-20T07:53:53;6.60;99.90
4207;DHT22;2117;47.972;7.830;2023-12-20T07:56:19;6.60;99.90
4207;DHT22;2117;47.972;7.830;2023-12-20T07:58:45;6.60;99.90
4207;DHT22;2117;47.972;7.830;2023-12-20T08:01:11;6.60;99.90
4207;DHT22;2117;47.972;7.830;2023-12-20T08:03:38;6.60;99.90
4207;DHT22;2117;47.972;7.830;2023-12-20T08:06:03;6.60;99.90
4207;DHT22;2117;47.972;7.830;2023-12-20T08:08:29;6.70;99.90
4207;DHT22;2117;47.972;7.830;2023-12-20T08:10:55;6.70;99.90
4207;DHT22;2117;47.972;7.830;2023-12-20T08:13:23;6.70;99.90
4207;DHT22;2117;47.972;7.830;2023-12-20T08:15:51;6.70;99.90
4207;DHT22;2117;47.972;7.830;2023-12-20T08:18:17;6.70;99.90
4207;DHT22;2117;47.972;7.830;2023-12-20T08:20:42;6.70;99.90
4207;DHT22;2117;47.972;7.830;2023-12-20T08:23:08;6.70;99.90
4207;DHT22;2117;47.972;7.830;2023-12-20T08:25:36;6.70;99.90
4207;DHT22;2117;47.972;7.830;2023-12-20T08:28:02;6.70;99.90
4207;DHT22;2117;47.972;7.830;2023-12-20T08:30:28;6.70;99.90
4207;DHT22;2117;47.972;7.830;2023-12-20T08:32:55;6.70;99.90
4207;DHT22;2117;47.972;7.830;2023-12-20T08:35:20;6.70;99.90
4207;DHT22;2117;47.972;7.830;2023-12-20T08:37:46;6.70;99.90
4207;DHT22;2117;47.972;7.830;2023-12-20T08:40:11;6.80;99.90
4207;DHT22;2117;47.972;7.830;2023-12-20T08:42:37;6.80;99.90
4207;DHT22;2117;47.972;7.830;2023-12-20T08:45:03;6.80;99.90
4207;DHT22;2117;47.972;7.830;2023-12-20T08:47:29;6.80;99.90
4207;DHT22;2117;47.972;7.830;2023-12-20T08:49:55;6.80;99.90
4207;DHT22;2117;47.972;7.830;2023-12-20T08:52:23;6.90;99.90
4207;DHT22;2117;47.972;7.830;2023-12-20T08:54:50;6.90;99.90
4207;DHT22;2117;47.972;7.830;2023-12-20T08:57:19;6.90;99.90
4207;DHT22;2117;47.972;7.830;2023-12-20T08:59:44;7.00;99.90
4207;DHT22;2117;47.972;7.830;2023-12-20T09:02:10;7.00;99.90
4207;DHT22;2117;47.972;7.830;2023-12-20T09:04:35;7.00;99.90
4207;DHT22;2117;47.972;7.830;2023-12-20T09:07:01;7.00;99.90
4207;DHT22;2117;47.972;7.830;2023-12-20T09:09:26;7.10;99.90
4207;DHT22;2117;47.972;7.830;2023-12-20T09:11:52;7.10;99.90
4207;DHT22;2117;47.972;7.830;2023-12-20T09:14:18;7.10;99.90
4207;DHT22;2117;47.972;7.830;2023-12-20T09:16:43;7.10;99.90
4207;DHT22;2117;47.972;7.830;2023-12-20T09:19:09;7.10;99.90
4207;DHT22;2117;47.972;7.830;2023-12-20T09:21:34;7.20;99.90
4207;DHT22;2117;47.972;7.830;2023-12-20T09:24:00;7.20;99.90
4207;DHT22;2117;47.972;7.830;2023-12-20T09:26:25;7.20;99.90
4207;DHT22;2117;47.972;7.830;2023-12-20T09:28:51;7.20;99.90
4207;DHT22;2117;47.972;7.830;2023-12-20T09:31:23;7.20;99.90
4207;DHT22;2117;47.972;7.830;2023-12-20T09:33:50;7.20;99.90
4207;DHT22;2117;47.972;7.830;2023-12-20T09:36:15;7.20;99.90
4207;DHT22;2117;47.972;7.830;2023-12-20T09:38:41;7.10;99.90
4207;DHT22;2117;47.972;7.830;2023-12-20T09:41:07;7.10;99.90
4207;DHT22;2117;47.972;7.830;2023-12-20T09:43:38;7.10;99.90
4207;DHT22;2117;47.972;7.830;2023-12-20T09:46:06;7.20;99.90
4207;DHT22;2117;47.972;7.830;2023-12-20T09:48:32;7.10;99.90
4207;DHT22;2117;47.972;7.830;2023-12-20T09:50:59;7.10;99.90
4207;DHT22;2117;47.972;7.830;2023-12-20T09:53:24;7.10;99.90
4207;DHT22;2117;47.972;7.830;2023-12-20T09:55:58;7.20;99.90
4207;DHT22;2117;47.972;7.830;2023-12-20T09:58:26;7.20;99.90
4207;DHT22;2117;47.972;7.830;2023-12-20T10:00:53;7.20;99.90
4207;DHT22;2117;47.972;7.830;2023-12-20T10:03:24;7.30;99.90
4207;DHT22;2117;47.972;7.830;2023-12-20T10:05:53;7.30;99.90
4207;DHT22;2117;47.972;7.830;2023-12-20T10:08:21;7.30;99.90
4207;DHT22;2117;47.972;7.830;2023-12-20T10:10:47;7.30;99.90
4207;DHT22;2117;47.972;7.830;2023-12-20T10:13:13;7.40;99.90
4207;DHT22;2117;47.972;7.830;2023-12-20T10:15:39;7.40;99.90
4207;DHT22;2117;47.972;7.830;2023-12-20T10:18:05;7.40;99.90
4207;DHT22;2117;47.972;7.830;2023-12-20T10:20:31;7.40;99.90
4207;DHT22;2117;47.972;7.830;2023-12-20T10:22:58;7.40;99.90
4207;DHT22;2117;47.972;7.830;2023-12-20T10:25:24;7.40;99.90
4207;DHT22;2117;47.972;7.830;2023-12-20T10:28:08;7.40;99.90
4207;DHT22;2117;47.972;7.830;2023-12-20T10:30:34;7.50;99.90
4207;DHT22;2117;47.972;7.830;2023-12-20T10:32:59;7.50;99.90
4207;DHT22;2117;47.972;7.830;2023-12-20T10:35:25;7.60;99.90
4207;DHT22;2117;47.972;7.830;2023-12-20T10:37:55;7.50;99.90
4207;DHT22;2117;47.972;7.830;2023-12-20T10:40:21;7.50;99.90
4207;DHT22;2117;47.972;7.830;2023-12-20T10:42:48;7.50;99.90
4207;DHT22;2117;47.972;7.830;2023-12-20T10:45:16;7.50;99.90
4207;DHT22;2117;47.972;7.830;2023-12-20T10:47:44;7.60;99.90
4207;DHT22;2117;47.972;7.830;2023-12-20T10:50:11;7.60;99.90
4207;DHT22;2117;47.972;7.830;2023-12-20T10:52:37;7.60;99.90
4207;DHT22;2117;47.972;7.830;2023-12-20T10:55:04;7.50;99.90
4207;DHT22;2117;47.972;7.830;2023-12-20T10:57:30;7.50;99.90
4207;DHT22;2117;47.972;7.830;2023-12-20T11:00:01;7.40;99.90
4207;DHT22;2117;47.972;7.830;2023-12-20T11:02:32;7.30;99.90
4207;DHT22;2117;47.972;7.830;2023-12-20T11:05:24;7.40;99.90
4207;DHT22;2117;47.972;7.830;2023-12-20T11:08:15;7.40;99.90
4207;DHT22;2117;47.972;7.830;2023-12-20T11:10:49;7.40;99.90
4207;DHT22;2117;47.972;7.830;2023-12-20T11:13:22;7.50;99.90
4207;DHT22;2117;47.972;7.830;2023-12-20T11:15:48;7.50;99.90
4207;DHT22;2117;47.972;7.830;2023-12-20T11:18:15;7.40;99.90
4207;DHT22;2117;47.972;7.830;2023-12-20T11:20:41;7.40;99.90
4207;DHT22;2117;47.972;7.830;2023-12-20T11:23:10;7.40;99.90
4207;DHT22;2117;47.972;7.830;2023-12-20T11:25:56;7.30;99.90
4207;DHT22;2117;47.972;7.830;2023-12-20T11:28:25;7.30;99.90
4207;DHT22;2117;47.972;7.830;2023-12-20T11:30:53;7.20;99.90
4207;DHT22;2117;47.972;7.830;2023-12-20T11:33:24;7.20;99.90
4207;DHT22;2117;47.972;7.830;2023-12-20T11:35:49;7.30;99.90
4207;DHT22;2117;47.972;7.830;2023-12-20T11:38:15;7.40;99.90
4207;DHT22;2117;47.972;7.830;2023-12-20T11:40:42;7.40;99.90
4207;DHT22;2117;47.972;7.830;2023-12-20T11:43:09;7.50;99.90
4207;DHT22;2117;47.972;7.830;2023-12-20T11:45:34;7.60;99.90
4207;DHT22;2117;47.972;7.830;2023-12-20T11:48:01;7.70;99.90
4207;DHT22;2117;47.972;7.830;2023-12-20T11:50:28;7.70;99.90
4207;DHT22;2117;47.972;7.830;2023-12-20T11:52:55;7.80;99.90
4207;DHT22;2117;47.972;7.830;2023-12-20T11:55:21;7.80;99.90
4207;DHT22;2117;47.972;7.830;2023-12-20T11:57:47;7.90;99.90
4207;DHT22;2117;47.972;7.830;2023-12-20T12:00:14;7.90;99.90
4207;DHT22;2117;47.972;7.830;2023-12-20T12:02:40;7.90;99.90
4207;DHT22;2117;47.972;7.830;2023-12-20T12:05:06;8.00;99.90
4207;DHT22;2117;47.972;7.830;2023-12-20T12:07:33;8.00;99.90
4207;DHT22;2117;47.972;7.830;2023-12-20T12:09:58;8.10;99.90
4207;DHT22;2117;47.972;7.830;2023-12-20T12:12:24;8.30;99.90
4207;DHT22;2117;47.972;7.830;2023-12-20T12:14:52;8.50;99.90
4207;DHT22;2117;47.972;7.830;2023-12-20T12:17:18;8.70;99.90
4207;DHT22;2117;47.972;7.830;2023-12-20T12:19:44;8.90;99.90
4207;DHT22;2117;47.972;7.830;2023-12-20T12:22:14;9.80;99.90
4207;DHT22;2117;47.972;7.830;2023-12-20T12:24:44;10.70;99.90
4207;DHT22;2117;47.972;7.830;2023-12-20T12:27:10;11.00;99.90
4207;DHT22;2117;47.972;7.830;2023-12-20T12:29:36;11.20;99.90
4207;DHT22;2117;47.972;7.830;2023-12-20T12:32:08;11.90;99.90
4207;DHT22;2117;47.972;7.830;2023-12-20T12:34:35;12.70;99.90
4207;DHT22;2117;47.972;7.830;2023-12-20T12:37:03;13.20;99.90
4207;DHT22;2117;47.972;7.830;2023-12-20T12:39:29;13.10;99.90
4207;DHT22;2117;47.972;7.830;2023-12-20T12:41:56;12.90;99.90
4207;DHT22;2117;47.972;7.830;2023-12-20T12:44:22;12.70;99.90
4207;DHT22;2117;47.972;7.830;2023-12-20T12:46:50;12.60;99.90
4207;DHT22;2117;47.972;7.830;2023-12-20T12:49:16;12.30;99.90
4207;DHT22;2117;47.972;7.830;2023-12-20T12:51:42;11.80;99.90
4207;DHT22;2117;47.972;7.830;2023-12-20T12:54:09;11.50;99.90
4207;DHT22;2117;47.972;7.830;2023-12-20T12:56:35;11.10;99.90
4207;DHT22;2117;47.972;7.830;2023-12-20T12:59:01;10.90;99.90
4207;DHT22;2117;47.972;7.830;2023-12-20T13:01:28;10.90;99.90
4207;DHT22;2117;47.972;7.830;2023-12-20T13:03:53;10.80;99.90
4207;DHT22;2117;47.972;7.830;2023-12-20T13:06:20;10.70;99.90
4207;DHT22;2117;47.972;7.830;2023-12-20T13:08:45;10.40;99.90
4207;DHT22;2117;47.972;7.830;2023-12-20T13:11:11;10.40;99.90
4207;DHT22;2117;47.972;7.830;2023-12-20T13:13:37;10.20;99.90
4207;DHT22;2117;47.972;7.830;2023-12-20T13:16:03;10.00;99.90
4207;DHT22;2117;47.972;7.830;2023-12-20T13:18:28;9.80;99.90
4207;DHT22;2117;47.972;7.830;2023-12-20T13:20:54;9.60;99.90
4207;DHT22;2117;47.972;7.830;2023-12-20T13:23:19;9.40;99.90
4207;DHT22;2117;47.972;7.830;2023-12-20T13:25:46;9.30;99.90
4207;DHT22;2117;47.972;7.830;2023-12-20T13:28:12;9.20;99.90
4207;DHT22;2117;47.972;7.830;2023-12-20T13:30:38;9.10;99.90
4207;DHT22;2117;47.972;7.830;2023-12-20T13:33:04;9.00;99.90
4207;DHT22;2117;47.972;7.830;2023-12-20T13:35:31;8.90;99.90
4207;DHT22;2117;47.972;7.830;2023-12-20T13:37:57;8.80;99.90
4207;DHT22;2117;47.972;7.830;2023-12-20T13:40:23;8.70;99.90
4207;DHT22;2117;47.972;7.830;2023-12-20T13:42:48;8.70;99.90
4207;DHT22;2117;47.972;7.830;2023-12-20T13:45:14;8.60;99.90
4207;DHT22;2117;47.972;7.830;2023-12-20T13:47:40;8.50;99.90
4207;DHT22;2117;47.972;7.830;2023-12-20T13:50:05;8.50;99.90
4207;DHT22;2117;47.972;7.830;2023-12-20T13:52:31;8.40;99.90
4207;DHT22;2117;47.972;7.830;2023-12-20T13:54:57;8.40;99.90
4207;DHT22;2117;47.972;7.830;2023-12-20T13:57:22;8.40;99.90
4207;DHT22;2117;47.972;7.830;2023-12-20T13:59:48;8.40;99.90
4207;DHT22;2117;47.972;7.830;2023-12-20T14:02:13;8.40;99.90
4207;DHT22;2117;47.972;7.830;2023-12-20T14:04:39;8.40;99.90
4207;DHT22;2117;47.972;7.830;2023-12-20T14:07:06;8.40;99.90
4207;DHT22;2117;47.972;7.830;2023-12-20T14:09:33;8.30;99.90
4207;DHT22;2117;47.972;7.830;2023-12-20T14:11:59;8.30;99.90
4207;DHT22;2117;47.972;7.830;2023-12-20T14:14:24;8.20;99.90
4207;DHT22;2117;47.972;7.830;2023-12-20T14:16:50;8.10;99.90
4207;DHT22;2117;47.972;7.830;2023-12-20T14:19:16;8.10;99.90
4207;DHT22;2117;47.972;7.830;2023-12-20T14:21:42;8.00;99.90
4207;DHT22;2117;47.972;7.830;2023-12-20T14:24:07;7.90;99.90
4207;DHT22;2117;47.972;7.830;2023-12-20T14:26:33;7.90;99.90
4207;DHT22;2117;47.972;7.830;2023-12-20T14:28:58;7.80;99.90
4207;DHT22;2117;47.972;7.830;2023-12-20T14:31:24;7.70;99.90
4207;DHT22;2117;47.972;7.830;2023-12-20T14:33:50;7.60;99.90
4207;DHT22;2117;47.972;7.830;2023-12-20T14:36:18;7.60;99.90
4207;DHT22;2117;47.972;7.830;2023-12-20T14:38:45;7.50;99.90
4207;DHT22;2117;47.972;7.830;2023-12-20T14:41:12;7.50;99.90
4207;DHT22;2117;47.972;7.830;2023-12-20T14:43:38;7.50;99.90
4207;DHT22;2117;47.972;7.830;2023-12-20T14:46:03;7.40;99.90
4207;DHT22;2117;47.972;7.830;2023-12-20T14:48:30;7.40;99.90
4207;DHT22;2117;47.972;7.830;2023-12-20T14:50:57;7.40;99.90
4207;DHT22;2117;47.972;7.830;2023-12-20T14:53:24;7.30;99.90
4207;DHT22;2117;47.972;7.830;2023-12-20T14:55:51;7.30;99.90
4207;DHT22;2117;47.972;7.830;2023-12-20T14:58:17;7.30;99.90
4207;DHT22;2117;47.972;7.830;2023-12-20T15:00:42;7.20;99.90
4207;DHT22;2117;47.972;7.830;2023-12-20T15:03:09;7.20;99.90
4207;DHT22;2117;47.972;7.830;2023-12-20T15:05:35;7.10;99.90
4207;DHT22;2117;47.972;7.830;2023-12-20T15:08:01;7.10;99.90
4207;DHT22;2117;47.972;7.830;2023-12-20T15:10:26;7.00;99.90
4207;DHT22;2117;47.972;7.830;2023-12-20T15:12:52;7.00;99.90
4207;DHT22;2117;47.972;7.830;2023-12-20T15:15:17;6.90;99.90
4207;DHT22;2117;47.972;7.830;2023-12-20T15:17:44;6.90;99.90
4207;DHT22;2117;47.972;7.830;2023-12-20T15:20:10;6.80;99.90
4207;DHT22;2117;47.972;7.830;2023-12-20T15:22:36;6.70;99.90
4207;DHT22;2117;47.972;7.830;2023-12-20T15:25:03;6.70;99.90
4207;DHT22;2117;47.972;7.830;2023-12-20T15:27:31;6.60;99.90
4207;DHT22;2117;47.972;7.830;2023-12-20T15:29:56;6.60;99.90
4207;DHT22;2117;47.972;7.830;2023-12-20T15:32:22;6.50;99.90
4207;DHT22;2117;47.972;7.830;2023-12-20T15:34:48;6.50;99.90
4207;DHT22;2117;47.972;7.830;2023-12-20T15:37:14;6.40;99.90
4207;DHT22;2117;47.972;7.830;2023-12-20T15:39:41;6.40;99.90
4207;DHT22;2117;47.972;7.830;2023-12-20T15:42:06;6.30;99.90
4207;DHT22;2117;47.972;7.830;2023-12-20T15:44:32;6.30;99.90
4207;DHT22;2117;47.972;7.830;2023-12-20T15:46:57;6.20;99.90
4207;DHT22;2117;47.972;7.830;2023-12-20T15:49:23;6.20;99.90
4207;DHT22;2117;47.972;7.830;2023-12-20T15:51:49;6.20;99.90
4207;DHT22;2117;47.972;7.830;2023-12-20T15:54:14;6.20;99.90
4207;DHT22;2117;47.972;7.830;2023-12-20T15:56:40;6.10;99.90
4207;DHT22;2117;47.972;7.830;2023-12-20T15:59:07;6.10;99.90
4207;DHT22;2117;47.972;7.830;2023-12-20T16:01:33;6.00;99.90
4207;DHT22;2117;47.972;7.830;2023-12-20T16:04:01;5.90;99.90
4207;DHT22;2117;47.972;7.830;2023-12-20T16:06:26;5.90;99.90
4207;DHT22;2117;47.972;7.830;2023-12-20T16:08:53;5.90;99.90
4207;DHT22;2117;47.972;7.830;2023-12-20T16:11:18;6.00;99.90